createdAt,value
2019-04-11T00:02:14.545Z,3.60
2019-04-11T00:04:43.614Z,3.60
2019-04-11T00:07:12.607Z,3.60
2019-04-11T00:09:42.820Z,3.60
2019-04-11T00:12:12.439Z,3.60
2019-04-11T00:14:42.155Z,3.50
2019-04-11T00:17:11.943Z,3.60
2019-04-11T00:19:40.953Z,3.40
2019-04-11T00:22:11.023Z,3.40
2019-04-11T00:24:40.119Z,3.30
2019-04-11T00:27:09.099Z,3.30
2019-04-11T00:29:38.646Z,3.20
2019-04-11T00:32:09.237Z,3.10
2019-04-11T00:34:39.343Z,3.10
2019-04-11T00:37:09.177Z,3.10
2019-04-11T00:39:38.232Z,3.10
2019-04-11T00:42:10.340Z,3.00
2019-04-11T00:44:39.360Z,2.90
2019-04-11T00:47:08.905Z,2.90
2019-04-11T00:49:38.762Z,2.90
2019-04-11T00:52:08.664Z,3.00
2019-04-11T00:54:38.588Z,3.00
2019-04-11T00:57:08.519Z,3.00
2019-04-11T00:59:38.440Z,3.00
2019-04-11T01:02:07.837Z,3.00
2019-04-11T01:04:37.110Z,3.00
2019-04-11T01:07:06.879Z,3.00
2019-04-11T01:09:36.755Z,3.10
2019-04-11T01:12:05.874Z,2.80
2019-04-11T01:14:37.111Z,2.80
2019-04-11T01:17:07.491Z,2.90
2019-04-11T01:19:36.175Z,2.80
2019-04-11T01:22:05.719Z,2.80
2019-04-11T01:24:35.607Z,2.80
2019-04-11T01:27:05.595Z,2.70
2019-04-11T01:29:35.658Z,2.60
2019-04-11T01:32:06.994Z,2.50
2019-04-11T01:34:37.008Z,2.50
2019-04-11T01:37:07.205Z,2.50
2019-04-11T01:39:59.498Z,2.40
2019-04-11T01:42:29.107Z,2.30
2019-04-11T01:44:58.139Z,2.20
2019-04-11T01:47:49.045Z,2.10
2019-04-11T01:50:23.026Z,2.10
2019-04-11T01:52:52.970Z,2.00
2019-04-11T01:55:22.376Z,1.90
2019-04-11T01:57:52.277Z,1.90
2019-04-11T02:00:48.745Z,1.80
2019-04-11T02:03:21.202Z,1.80
2019-04-11T02:05:51.602Z,1.80
2019-04-11T02:08:20.677Z,1.70
2019-04-11T02:10:50.810Z,1.80
2019-04-11T02:13:19.781Z,1.70
2019-04-11T02:15:48.812Z,2.50
2019-04-11T02:18:17.723Z,1.60
2019-04-11T02:20:47.303Z,1.60
2019-04-11T02:23:21.242Z,1.60
2019-04-11T02:26:00.884Z,1.50
2019-04-11T02:28:30.927Z,1.50
2019-04-11T02:31:02.455Z,1.30
2019-04-11T02:33:32.953Z,1.40
2019-04-11T02:36:03.130Z,1.40
2019-04-11T02:38:33.311Z,1.40
2019-04-11T02:41:04.141Z,1.40
2019-04-11T02:43:34.774Z,1.40
2019-04-11T02:46:13.012Z,1.30
2019-04-11T02:48:36.268Z,1.30
2019-04-11T02:51:07.572Z,1.10
2019-04-11T02:53:38.775Z,1.10
2019-04-11T02:56:09.281Z,1.00
2019-04-11T02:58:39.739Z,1.00
2019-04-11T03:01:10.463Z,1.00
2019-04-11T03:03:41.705Z,1.00
2019-04-11T03:06:11.130Z,0.80
2019-04-11T03:08:41.144Z,0.80
2019-04-11T03:11:11.168Z,0.90
2019-04-11T03:13:41.738Z,0.80
2019-04-11T03:16:27.822Z,0.80
2019-04-11T03:19:00.121Z,0.70
2019-04-11T03:21:16.446Z,0.60
2019-04-11T03:23:44.034Z,0.60
2019-04-11T03:26:14.104Z,0.50
2019-04-11T03:28:49.012Z,0.60
2019-04-11T03:31:50.573Z,0.50
2019-04-11T03:39:11.605Z,0.60
2019-04-11T03:41:34.853Z,0.80
2019-04-11T03:43:58.010Z,0.60
2019-04-11T03:46:32.673Z,0.80
2019-04-11T03:49:00.304Z,0.60
2019-04-11T03:51:22.603Z,0.60
2019-04-11T03:53:53.406Z,0.60
2019-04-11T03:56:22.580Z,0.50
2019-04-11T03:58:53.455Z,0.50
2019-04-11T04:01:24.588Z,0.60
2019-04-11T04:03:54.217Z,0.60
2019-04-11T04:06:25.532Z,0.70
2019-04-11T04:08:55.595Z,0.70
2019-04-11T04:11:27.451Z,0.70
2019-04-11T04:14:19.838Z,0.60
2019-04-11T04:17:17.146Z,0.60
2019-04-11T04:19:56.733Z,0.50
2019-04-11T04:22:31.650Z,0.50
2019-04-11T04:25:03.761Z,0.40
2019-04-11T04:27:33.055Z,0.40
2019-04-11T04:30:05.332Z,0.40
2019-04-11T04:32:34.049Z,0.40
2019-04-11T04:35:04.989Z,0.40
2019-04-11T04:37:34.616Z,0.40
2019-04-11T04:40:23.943Z,0.40
2019-04-11T04:42:41.636Z,0.40
2019-04-11T04:45:07.916Z,0.50
2019-04-11T04:47:46.453Z,0.60
2019-04-11T04:50:08.815Z,0.50
2019-04-11T04:52:38.293Z,0.50
2019-04-11T04:55:08.526Z,0.70
2019-04-11T04:57:37.878Z,0.70
2019-04-11T05:00:07.277Z,0.70
2019-04-11T05:02:37.326Z,0.70
2019-04-11T05:05:06.670Z,0.70
2019-04-11T05:07:40.143Z,0.90
2019-04-11T05:10:08.897Z,1.00
2019-04-11T05:12:38.823Z,0.90
2019-04-11T05:15:08.025Z,0.90
2019-04-11T05:17:38.514Z,0.90
2019-04-11T05:20:09.166Z,0.90
2019-04-11T05:22:39.326Z,0.90
2019-04-11T05:25:08.491Z,0.90
2019-04-11T05:27:37.859Z,0.80
2019-04-11T05:30:07.984Z,1.00
2019-04-11T05:32:39.639Z,0.90
2019-04-11T05:35:08.950Z,1.00
2019-04-11T05:37:39.662Z,1.10
2019-04-11T05:40:09.314Z,1.30
2019-04-11T05:42:39.564Z,1.40
2019-04-11T05:45:15.677Z,1.60
2019-04-11T05:47:39.424Z,1.80
2019-04-11T05:50:25.024Z,1.90
2019-04-11T05:52:56.638Z,2.10
2019-04-11T05:55:27.926Z,2.20
2019-04-11T05:57:58.876Z,2.30
2019-04-11T06:00:46.508Z,2.50
2019-04-11T06:03:15.701Z,2.70
2019-04-11T06:06:03.221Z,2.90
2019-04-11T06:08:33.511Z,3.20
2019-04-11T06:11:33.509Z,3.40
2019-04-11T06:14:17.334Z,3.50
2019-04-11T06:16:52.591Z,3.80
2019-04-11T06:19:33.378Z,3.70
2019-04-11T06:22:08.695Z,3.60
2019-04-11T06:24:56.522Z,3.80
2019-04-11T06:27:43.308Z,4.10
2019-04-11T06:30:24.407Z,4.40
2019-04-11T06:33:18.556Z,4.70
2019-04-11T06:36:16.079Z,5.10
2019-04-11T06:38:52.437Z,5.40
2019-04-11T06:41:30.657Z,6.00
2019-04-11T06:44:06.883Z,6.10
2019-04-11T06:47:06.607Z,6.70
2019-04-11T06:50:00.545Z,6.60
2019-04-11T06:52:29.578Z,7.20
2019-04-11T06:55:26.808Z,7.60
2019-04-11T06:58:02.577Z,7.90
2019-04-11T07:00:31.819Z,7.40
2019-04-11T07:03:03.430Z,7.40
2019-04-11T07:05:35.112Z,7.30
2019-04-11T07:08:05.502Z,7.80
2019-04-11T07:10:39.299Z,8.00
2019-04-11T07:13:16.554Z,7.60
2019-04-11T07:15:48.533Z,7.70
2019-04-11T07:18:35.690Z,7.90
2019-04-11T07:21:06.911Z,7.70
2019-04-11T07:23:53.619Z,8.00
2019-04-11T07:26:37.428Z,7.80
2019-04-11T07:29:25.767Z,7.40
2019-04-11T07:32:16.150Z,7.40
2019-04-11T07:35:08.591Z,7.80
2019-04-11T07:37:42.343Z,7.40
2019-04-11T07:40:33.152Z,7.10
2019-04-11T07:43:19.051Z,7.00
2019-04-11T07:46:27.180Z,7.00
2019-04-11T07:48:59.421Z,7.30
2019-04-11T07:51:29.787Z,7.90
2019-04-11T07:54:00.377Z,7.60
2019-04-11T07:56:48.608Z,7.80
2019-04-11T07:59:27.173Z,7.40
2019-04-11T08:02:13.708Z,7.70
2019-04-11T08:05:21.965Z,7.50
2019-04-11T08:08:10.983Z,7.20
2019-04-11T08:10:45.723Z,7.60
2019-04-11T08:13:20.695Z,7.50
2019-04-11T08:16:12.583Z,7.70
2019-04-11T08:18:49.407Z,7.50
2019-04-11T08:21:37.155Z,7.60
2019-04-11T08:24:08.554Z,7.60
2019-04-11T08:26:56.586Z,7.80
2019-04-11T08:29:27.064Z,7.80
2019-04-11T08:32:30.313Z,7.30
2019-04-11T08:35:17.772Z,7.40
2019-04-11T08:38:06.384Z,7.70
2019-04-11T08:40:40.835Z,7.80
2019-04-11T08:43:17.140Z,8.00
2019-04-11T08:45:50.661Z,7.60
2019-04-11T08:48:19.664Z,7.80
2019-04-11T08:50:52.776Z,8.00
2019-04-11T08:53:38.339Z,7.90
2019-04-11T08:56:07.404Z,8.00
2019-04-11T08:58:51.044Z,8.10
2019-04-11T09:01:20.514Z,7.90
2019-04-11T09:04:10.448Z,7.90
2019-04-11T09:06:38.986Z,7.90
2019-04-11T09:09:37.991Z,7.80
2019-04-11T09:12:10.175Z,7.60
2019-04-11T09:14:56.844Z,8.00
2019-04-11T09:17:30.219Z,8.40
2019-04-11T09:20:17.013Z,8.50
2019-04-11T09:22:53.333Z,8.20
2019-04-11T09:25:40.209Z,8.00
2019-04-11T09:28:21.643Z,8.00
2019-04-11T09:31:16.948Z,8.50
2019-04-11T09:34:03.745Z,8.60
2019-04-11T09:36:45.052Z,8.30
2019-04-11T09:39:39.329Z,7.90
2019-04-11T09:42:26.166Z,7.80
2019-04-11T09:45:14.165Z,8.20
2019-04-11T09:48:22.255Z,8.70
2019-04-11T09:51:15.684Z,8.70
2019-04-11T09:53:47.219Z,9.00
2019-04-11T09:56:33.601Z,8.80
2019-04-11T09:59:08.657Z,8.90
2019-04-11T10:01:56.143Z,9.10
2019-04-11T10:04:25.626Z,9.00
2019-04-11T10:07:19.641Z,9.20
2019-04-11T10:10:10.800Z,9.40
2019-04-11T10:12:57.407Z,9.40
2019-04-11T10:15:47.314Z,9.10
2019-04-11T10:18:38.223Z,9.00
2019-04-11T10:21:04.865Z,9.30
2019-04-11T10:23:49.391Z,9.50
2019-04-11T10:26:18.391Z,9.50
2019-04-11T10:29:12.235Z,9.40
2019-04-11T10:31:44.321Z,9.90
2019-04-11T10:34:30.772Z,10.20
2019-04-11T10:37:07.682Z,10.20
2019-04-11T10:39:59.813Z,9.90
2019-04-11T10:42:30.697Z,9.90
2019-04-11T10:45:24.864Z,10.30
2019-04-11T10:47:59.701Z,10.30
2019-04-11T10:50:46.549Z,10.20
2019-04-11T10:53:16.695Z,10.20
2019-04-11T10:56:08.559Z,9.80
2019-04-11T10:58:43.147Z,9.90
2019-04-11T11:01:46.473Z,9.70
2019-04-11T11:04:18.202Z,9.50
2019-04-11T11:06:49.181Z,9.60
2019-04-11T11:09:26.113Z,9.20
2019-04-11T11:12:23.282Z,9.70
2019-04-11T11:15:09.519Z,9.90
2019-04-11T11:18:35.141Z,9.90
2019-04-11T11:20:49.955Z,9.90
2019-04-11T11:23:49.344Z,10.00
2019-04-11T11:26:29.566Z,10.20
2019-04-11T11:29:17.207Z,10.50
2019-04-11T11:31:57.993Z,10.50
2019-04-11T11:34:52.310Z,10.40
2019-04-11T11:37:45.210Z,9.80
2019-04-11T11:40:38.295Z,10.30
2019-04-11T11:43:10.866Z,9.80
2019-04-11T11:45:54.864Z,9.90
2019-04-11T11:48:46.305Z,9.70
2019-04-11T11:51:37.469Z,10.00
2019-04-11T11:54:13.517Z,10.50
2019-04-11T11:56:44.353Z,10.60
2019-04-11T11:59:34.487Z,10.50
2019-04-11T12:02:06.652Z,9.90
2019-04-11T12:04:46.520Z,9.90
2019-04-11T12:07:16.892Z,10.30
2019-04-11T12:10:04.847Z,10.70
2019-04-11T12:12:39.996Z,10.70
2019-04-11T12:15:28.035Z,10.20
2019-04-11T12:18:18.909Z,10.30
2019-04-11T12:21:08.066Z,10.50
2019-04-11T12:24:02.178Z,10.30
2019-04-11T12:26:30.393Z,9.90
2019-04-11T12:29:18.929Z,10.20
2019-04-11T12:31:52.313Z,10.20
2019-04-11T12:34:44.805Z,10.50
2019-04-11T12:37:21.130Z,10.90
2019-04-11T12:40:09.667Z,10.40
2019-04-11T12:42:39.919Z,10.50
2019-04-11T12:45:39.880Z,10.60
2019-04-11T12:48:11.906Z,10.50
2019-04-11T12:51:01.698Z,10.20
2019-04-11T12:53:30.714Z,10.30
2019-04-11T12:56:18.259Z,10.70
2019-04-11T12:58:49.619Z,11.30
2019-04-11T13:01:52.499Z,11.40
2019-04-11T13:04:44.288Z,10.80
2019-04-11T13:07:33.460Z,11.00
2019-04-11T13:10:35.525Z,11.00
2019-04-11T13:13:20.022Z,11.50
2019-04-11T13:16:11.419Z,12.10
2019-04-11T13:18:41.148Z,11.80
2019-04-11T13:21:22.940Z,12.00
2019-04-11T13:24:11.001Z,11.60
2019-04-11T13:27:07.880Z,12.10
2019-04-11T13:30:04.867Z,12.40
2019-04-11T13:32:53.666Z,11.60
2019-04-11T13:35:44.743Z,11.50
2019-04-11T13:38:25.917Z,12.30
2019-04-11T13:41:20.368Z,13.60
2019-04-11T13:44:14.440Z,14.10
2019-04-11T13:46:55.842Z,13.40
2019-04-11T13:49:37.524Z,12.60
2019-04-11T13:52:28.550Z,13.60
2019-04-11T13:55:08.626Z,13.20
2019-04-11T13:57:56.704Z,13.60
2019-04-11T14:00:49.033Z,13.00
2019-04-11T14:03:49.192Z,13.00
2019-04-11T14:06:26.667Z,14.30
2019-04-11T14:09:06.456Z,13.00
2019-04-11T14:11:37.049Z,13.20
2019-04-11T14:14:35.734Z,13.40
2019-04-11T14:17:15.425Z,14.50
2019-04-11T14:20:02.122Z,14.90
2019-04-11T14:22:37.710Z,14.50
2019-04-11T14:25:25.756Z,14.50
2019-04-11T14:27:57.137Z,14.00
2019-04-11T14:30:51.655Z,13.70
2019-04-11T14:33:18.671Z,13.60
2019-04-11T14:36:33.258Z,14.60
2019-04-11T14:38:55.822Z,14.70
2019-04-11T14:41:43.870Z,14.90
2019-04-11T14:44:15.778Z,14.30
2019-04-11T14:47:01.149Z,13.90
2019-04-11T14:49:30.226Z,14.10
2019-04-11T14:52:33.475Z,14.00
2019-04-11T14:55:03.544Z,13.90
2019-04-11T14:57:54.499Z,14.20
2019-04-11T15:00:42.626Z,13.10
2019-04-11T15:03:34.141Z,13.10
2019-04-11T15:06:18.107Z,12.10
2019-04-11T15:09:18.119Z,12.60
2019-04-11T15:12:06.129Z,13.20
2019-04-11T15:14:52.900Z,13.50
2019-04-11T15:17:27.757Z,14.10
2019-04-11T15:20:14.313Z,13.60
2019-04-11T15:22:53.095Z,13.60
2019-04-11T15:25:45.000Z,13.70
2019-04-11T15:28:21.303Z,13.00
2019-04-11T15:30:51.815Z,13.40
2019-04-11T15:33:51.684Z,13.10
2019-04-11T15:36:21.100Z,13.20
2019-04-11T15:39:07.532Z,13.00
2019-04-11T15:41:37.437Z,13.80
2019-04-11T15:44:34.531Z,14.10
2019-04-11T15:47:04.881Z,14.60
2019-04-11T15:49:55.583Z,14.80
2019-04-11T15:52:24.558Z,14.40
2019-04-11T15:55:18.334Z,14.70
2019-04-11T15:57:53.842Z,14.70
2019-04-11T16:00:53.881Z,14.70
2019-04-11T16:03:24.799Z,14.40
2019-04-11T16:06:11.417Z,13.40
2019-04-11T16:08:43.699Z,13.00
2019-04-11T16:11:30.458Z,13.20
2019-04-11T16:14:19.716Z,13.60
2019-04-11T16:16:57.801Z,13.90
2019-04-11T16:20:04.934Z,13.40
2019-04-11T16:23:10.827Z,12.20
2019-04-11T16:25:41.742Z,13.40
2019-04-11T16:28:26.456Z,14.40
2019-04-11T16:30:59.444Z,13.30
2019-04-11T16:33:46.888Z,13.00
2019-04-11T16:36:21.820Z,12.00
2019-04-11T16:39:07.161Z,12.20
2019-04-11T16:41:54.470Z,12.10
2019-04-11T16:44:42.508Z,12.00
2019-04-11T16:47:33.259Z,12.00
2019-04-11T16:50:02.082Z,12.00
2019-04-11T16:52:31.055Z,12.20
2019-04-11T16:55:00.026Z,12.00
2019-04-11T16:57:29.996Z,12.00
2019-04-11T16:59:59.202Z,11.80
2019-04-11T17:02:29.124Z,11.40
2019-04-11T17:04:58.060Z,11.30
2019-04-11T17:07:45.248Z,11.60
2019-04-11T17:10:15.078Z,12.20
2019-04-11T17:12:44.297Z,11.60
2019-04-11T17:15:13.517Z,10.60
2019-04-11T17:17:42.690Z,9.90
2019-04-11T17:20:23.023Z,9.50
2019-04-11T17:22:52.123Z,9.00
2019-04-11T17:25:21.162Z,8.50
2019-04-11T17:27:50.698Z,8.30
2019-04-11T17:30:24.526Z,8.10
2019-04-11T17:32:55.374Z,8.10
2019-04-11T17:35:22.773Z,7.90
2019-04-11T17:37:51.741Z,8.00
2019-04-11T17:40:20.909Z,7.80
2019-04-11T17:42:49.943Z,7.90
2019-04-11T17:45:18.940Z,7.70
2019-04-11T17:47:47.944Z,7.70
2019-04-11T17:50:16.905Z,7.60
2019-04-11T17:52:45.938Z,7.60
2019-04-11T17:55:15.190Z,7.50
2019-04-11T17:57:44.270Z,7.40
2019-04-11T18:00:20.106Z,7.30
2019-04-11T18:02:49.509Z,7.30
2019-04-11T18:05:18.645Z,7.30
2019-04-11T18:07:49.879Z,7.20
2019-04-11T18:10:18.497Z,7.10
2019-04-11T18:12:47.512Z,7.00
2019-04-11T18:15:16.424Z,6.90
2019-04-11T18:17:45.408Z,6.80
2019-04-11T18:20:14.485Z,6.80
2019-04-11T18:22:43.752Z,6.70
2019-04-11T18:25:14.461Z,6.60
2019-04-11T18:27:43.936Z,6.50
2019-04-11T18:30:13.002Z,6.40
2019-04-11T18:32:42.474Z,6.30
2019-04-11T18:35:11.506Z,6.30
2019-04-11T18:37:40.652Z,6.20
2019-04-11T18:40:10.462Z,6.10
2019-04-11T18:42:39.626Z,6.10
2019-04-11T18:45:08.780Z,6.00
2019-04-11T18:47:37.758Z,5.90
2019-04-11T18:50:07.083Z,5.80
2019-04-11T18:52:36.210Z,5.80
2019-04-11T18:55:06.434Z,5.70
2019-04-11T18:57:35.520Z,5.80
2019-04-11T19:00:07.879Z,5.80
2019-04-11T19:02:37.928Z,5.70
2019-04-11T19:05:10.943Z,5.60
2019-04-11T19:07:42.830Z,5.50
2019-04-11T19:10:14.559Z,5.40
2019-04-11T19:12:44.030Z,5.30
2019-04-11T19:15:16.738Z,5.20
2019-04-11T19:17:46.858Z,5.30
2019-04-11T19:20:18.809Z,5.10
2019-04-11T19:22:47.674Z,5.00
2019-04-11T19:25:16.712Z,4.90
2019-04-11T19:27:50.532Z,4.90
2019-04-11T19:30:16.572Z,5.00
2019-04-11T19:32:47.722Z,4.80
2019-04-11T19:35:16.899Z,4.80
2019-04-11T19:37:45.940Z,4.70
2019-04-11T19:40:16.526Z,4.60
2019-04-11T19:42:48.901Z,4.50
2019-04-11T19:45:16.883Z,4.40
2019-04-11T19:47:51.447Z,4.40
2019-04-11T19:50:20.406Z,4.30
2019-04-11T19:52:49.450Z,4.20
2019-04-11T19:55:37.413Z,4.10
2019-04-11T19:58:06.553Z,4.10
2019-04-11T20:00:36.573Z,4.00
2019-04-11T20:03:08.339Z,3.90
2019-04-11T20:05:36.436Z,3.80
2019-04-11T20:08:05.770Z,3.80
2019-04-11T20:10:34.980Z,3.80
2019-04-11T20:13:04.466Z,3.80
2019-04-11T20:15:37.312Z,3.80
2019-04-11T20:18:04.404Z,3.70
2019-04-11T20:20:36.837Z,3.70
2019-04-11T20:23:04.454Z,3.70
2019-04-11T20:25:33.493Z,3.60
2019-04-11T20:28:02.611Z,3.50
2019-04-11T20:30:32.838Z,3.60
2019-04-11T20:33:03.179Z,3.40
2019-04-11T20:35:32.805Z,3.30
2019-04-11T20:38:01.879Z,3.40
2019-04-11T20:40:31.287Z,3.40
2019-04-11T20:43:00.564Z,3.30
2019-04-11T20:45:31.859Z,3.30
2019-04-11T20:48:00.964Z,3.30
2019-04-11T20:50:30.126Z,3.30
2019-04-11T20:53:12.037Z,3.10
2019-04-11T20:55:31.134Z,3.20
2019-04-11T20:58:00.899Z,3.10
2019-04-11T21:00:29.848Z,2.80
2019-04-11T21:02:59.070Z,2.80
2019-04-11T21:05:30.588Z,2.80
2019-04-11T21:08:02.617Z,2.70
2019-04-11T21:10:31.948Z,2.80
2019-04-11T21:13:00.407Z,2.70
2019-04-11T21:15:29.373Z,2.70
2019-04-11T21:17:58.354Z,2.80
2019-04-11T21:20:27.335Z,2.70
2019-04-11T21:22:56.811Z,2.80
2019-04-11T21:25:26.150Z,2.80
2019-04-11T21:27:59.063Z,2.90
2019-04-11T21:30:27.935Z,2.90
2019-04-11T21:32:58.374Z,2.80
2019-04-11T21:35:27.178Z,2.80
2019-04-11T21:37:57.938Z,2.90
2019-04-11T21:40:26.958Z,2.90
2019-04-11T21:42:55.878Z,3.00
2019-04-11T21:45:24.786Z,3.00
2019-04-11T21:47:53.707Z,3.00
2019-04-11T21:50:22.701Z,3.00
2019-04-11T21:52:51.648Z,3.00
2019-04-11T21:55:20.544Z,2.80
2019-04-11T21:57:51.113Z,3.00
2019-04-11T22:00:24.874Z,2.90
2019-04-11T22:02:54.417Z,2.90
2019-04-11T22:05:24.180Z,2.80
2019-04-11T22:07:53.309Z,2.80
2019-04-11T22:10:22.297Z,2.80
2019-04-11T22:12:51.274Z,2.80
2019-04-11T22:15:20.232Z,2.70
2019-04-11T22:17:49.302Z,2.70
2019-04-11T22:20:18.278Z,2.80
2019-04-11T22:22:47.272Z,2.60
2019-04-11T22:25:16.247Z,2.70
2019-04-11T22:27:45.649Z,2.60
2019-04-11T22:30:16.299Z,2.60
2019-04-11T22:32:46.970Z,2.50
2019-04-11T22:35:16.035Z,2.50
2019-04-11T22:37:45.034Z,2.50
2019-04-11T22:40:14.102Z,2.50
2019-04-11T22:42:43.124Z,2.50
2019-04-11T22:45:12.114Z,2.30
2019-04-11T22:47:41.182Z,2.40
2019-04-11T22:50:10.746Z,2.50
2019-04-11T22:52:42.303Z,2.40
2019-04-11T22:55:11.311Z,2.30
2019-04-11T22:57:43.479Z,2.20
2019-04-11T23:00:14.804Z,2.30
2019-04-11T23:02:58.637Z,2.30
2019-04-11T23:05:27.626Z,2.30
2019-04-11T23:07:56.754Z,2.20
2019-04-11T23:10:25.763Z,2.20
2019-04-11T23:12:54.669Z,2.20
2019-04-11T23:15:23.490Z,2.00
2019-04-11T23:17:52.401Z,1.80
2019-04-11T23:20:21.533Z,1.90
2019-04-11T23:22:50.595Z,1.70
2019-04-11T23:25:21.251Z,1.60
2019-04-11T23:27:50.300Z,1.70
2019-04-11T23:30:19.298Z,1.60
2019-04-11T23:32:50.814Z,1.60
2019-04-11T23:35:21.167Z,1.60
2019-04-11T23:37:51.048Z,1.60
2019-04-11T23:40:21.753Z,1.50
2019-04-11T23:42:50.986Z,1.50
2019-04-11T23:45:23.441Z,1.50
2019-04-11T23:47:54.089Z,1.40
2019-04-11T23:50:25.261Z,1.40
2019-04-11T23:52:56.980Z,1.40
2019-04-11T23:55:24.585Z,1.40
2019-04-11T23:57:53.548Z,1.40
